Time;durP1;ratioP1;P1;durP2;ratioP2;P2;SDS_P1;SDS_P2;PMS_P1;PMS_P2;Temp;Humidity;BMP_temperature;BMP_pressure;BME280_temperature;BME280_humidity;BME280_pressure;Samples;Min_cycle;Max_cycle;Signal;HPM_P1;HPM_P2
2022/11/09 00:02:19;;;;;;;4.33;2.97;;;14.10;1.00;;;;;;4952807;28;20491;-50
2022/11/09 00:04:45;;;;;;;4.73;2.80;;;14.10;1.00;;;;;;4954568;28;20244;-50
2022/11/09 00:07:10;;;;;;;7.70;2.43;;;14.10;1.00;;;;;;4954255;28;20188;-50
2022/11/09 00:09:36;;;;;;;2.67;2.40;;;14.10;1.00;;;;;;4954237;28;20225;-51
2022/11/09 00:12:03;;;;;;;4.03;2.67;;;14.00;1.00;;;;;;4955100;28;20190;-60
2022/11/09 00:14:29;;;;;;;2.70;2.40;;;13.90;1.00;;;;;;4953298;28;20217;-50
2022/11/09 00:16:55;;;;;;;3.87;2.33;;;14.00;1.00;;;;;;4953650;28;20561;-50
2022/11/09 00:19:21;;;;;;;3.20;2.70;;;14.00;1.00;;;;;;4954655;28;20461;-47
2022/11/09 00:21:47;;;;;;;3.70;2.73;;;13.90;1.00;;;;;;4953937;28;20528;-51
2022/11/09 00:24:13;;;;;;;3.10;2.30;;;13.90;1.00;;;;;;4953365;28;20835;-51
2022/11/09 00:26:38;;;;;;;3.80;2.73;;;13.80;1.00;;;;;;4954135;28;20544;-50
2022/11/09 00:29:04;;;;;;;3.03;2.63;;;13.80;1.00;;;;;;4954591;28;20186;-51
2022/11/09 00:31:29;;;;;;;6.00;2.67;;;13.90;1.00;;;;;;4952575;28;20194;-51
2022/11/09 00:33:56;;;;;;;5.63;2.60;;;13.80;1.00;;;;;;4954786;28;20233;-51
2022/11/09 00:36:23;;;;;;;5.43;2.53;;;13.80;1.00;;;;;;4949042;28;20667;-51
2022/11/09 00:38:54;;;;;;;7.20;2.40;;;13.70;1.00;;;;;;4954954;28;20511;-51
2022/11/09 00:41:21;;;;;;;5.53;2.90;;;13.60;1.00;;;;;;4950756;28;20469;-51
2022/11/09 00:43:47;;;;;;;4.20;2.73;;;13.50;1.00;;;;;;4954949;28;20404;-50
2022/11/09 00:46:12;;;;;;;3.77;2.80;;;13.40;1.00;;;;;;4945223;28;20450;-50
2022/11/09 00:48:38;;;;;;;4.10;2.60;;;13.40;1.00;;;;;;4944829;28;21025;-51
2022/11/09 00:51:04;;;;;;;9.20;2.50;;;13.40;1.00;;;;;;4950684;28;20193;-50
2022/11/09 00:53:30;;;;;;;4.67;2.37;;;13.30;1.00;;;;;;4954957;28;20277;-51
2022/11/09 00:56:00;;;;;;;5.60;2.67;;;13.20;1.00;;;;;;4954104;28;20911;-50
2022/11/09 00:58:27;;;;;;;2.70;2.50;;;13.10;1.00;;;;;;4954836;28;20421;-50
2022/11/09 01:00:55;;;;;;;6.77;2.70;;;13.20;1.00;;;;;;4954448;28;20962;-50
2022/11/09 01:03:21;;;;;;;5.20;2.57;;;13.30;1.00;;;;;;4954940;28;20414;-51
2022/11/09 01:05:47;;;;;;;3.20;2.70;;;13.40;1.00;;;;;;4954221;28;20484;-50
2022/11/09 01:08:12;;;;;;;3.43;2.13;;;13.40;1.00;;;;;;4953740;28;20457;-50
2022/11/09 01:10:43;;;;;;;3.63;2.30;;;13.40;1.00;;;;;;4954665;28;20887;-50
2022/11/09 01:13:11;;;;;;;3.80;3.03;;;13.50;1.00;;;;;;4954766;28;20185;-51
2022/11/09 01:15:59;;;;;;;7.10;2.90;;;13.50;1.00;;;;;;4954112;28;20496;-50
2022/11/09 01:18:24;;;;;;;7.40;2.63;;;13.50;1.00;;;;;;4954377;28;20973;-53
2022/11/09 01:20:50;;;;;;;5.00;2.30;;;13.50;1.00;;;;;;4954040;28;20496;-51
2022/11/09 01:23:18;;;;;;;5.43;2.80;;;13.40;1.00;;;;;;4953618;28;20193;-50
2022/11/09 01:25:44;;;;;;;3.57;2.77;;;13.50;1.00;;;;;;4954305;28;20197;-50
2022/11/09 01:28:10;;;;;;;4.20;2.50;;;13.50;1.00;;;;;;4952663;28;20868;-50
2022/11/09 01:30:41;;;;;;;6.23;2.97;;;13.50;1.00;;;;;;4951977;29;20656;-50
2022/11/09 01:33:09;;;;;;;3.00;2.50;;;13.50;1.00;;;;;;4954103;28;20510;-50
2022/11/09 01:35:36;;;;;;;6.07;3.13;;;13.50;1.00;;;;;;4953426;28;20452;-50
2022/11/09 01:38:04;;;;;;;4.53;2.60;;;13.50;1.00;;;;;;4953052;28;20923;-50
2022/11/09 01:40:34;;;;;;;2.93;2.63;;;13.50;1.00;;;;;;4954032;28;20477;-50
2022/11/09 01:43:16;;;;;;;4.10;2.80;;;13.40;1.00;;;;;;4939325;29;20797;-50
2022/11/09 01:45:44;;;;;;;5.40;2.60;;;13.30;1.00;;;;;;4953411;28;20440;-47
2022/11/09 01:48:25;;;;;;;4.50;2.83;;;13.30;1.00;;;;;;4934863;29;20501;-50
2022/11/09 01:51:01;;;;;;;5.57;2.90;;;13.30;1.00;;;;;;4949018;29;21050;-50
2022/11/09 01:53:32;;;;;;;5.90;2.57;;;13.30;1.00;;;;;;4953922;28;20441;-50
2022/11/09 01:56:01;;;;;;;3.90;3.00;;;13.30;1.00;;;;;;4953809;28;20464;-50
2022/11/09 01:58:32;;;;;;;3.60;2.97;;;13.30;1.00;;;;;;4953204;28;20487;-51
2022/11/09 02:00:59;;;;;;;7.23;2.80;;;13.30;1.00;;;;;;4953500;28;20481;-51
2022/11/09 02:03:34;;;;;;;3.30;3.00;;;13.30;1.00;;;;;;4952896;28;20552;-49
2022/11/09 02:06:03;;;;;;;6.10;2.60;;;13.20;1.00;;;;;;4953355;28;20405;-51
2022/11/09 02:08:28;;;;;;;3.87;2.57;;;13.20;1.00;;;;;;4953854;28;20450;-50
2022/11/09 02:10:59;;;;;;;4.93;2.40;;;13.20;1.00;;;;;;4953705;28;20537;-50
2022/11/09 02:13:28;;;;;;;3.60;2.90;;;13.20;1.00;;;;;;4952503;28;20281;-50
2022/11/09 02:15:53;;;;;;;5.73;2.73;;;13.10;1.00;;;;;;4952488;28;20515;-50
2022/11/09 02:18:20;;;;;;;3.60;2.70;;;13.10;1.00;;;;;;4953417;28;20421;-50
2022/11/09 02:20:47;;;;;;;2.87;2.60;;;13.10;1.00;;;;;;4953102;28;20217;-50
2022/11/09 02:23:13;;;;;;;6.60;2.57;;;13.10;1.00;;;;;;4952112;29;20472;-50
2022/11/09 02:25:39;;;;;;;4.30;2.73;;;13.20;1.00;;;;;;4948975;28;20469;-49
2022/11/09 02:28:05;;;;;;;7.03;2.90;;;13.30;1.00;;;;;;4952432;29;20186;-50
2022/11/09 02:30:33;;;;;;;7.57;3.10;;;13.30;1.00;;;;;;4952536;28;20281;-50
2022/11/09 02:32:58;;;;;;;3.47;2.60;;;13.30;1.00;;;;;;4952889;29;20432;-51
2022/11/09 02:35:24;;;;;;;4.33;2.50;;;13.30;1.00;;;;;;4952511;28;20444;-51
2022/11/09 02:37:49;;;;;;;3.80;2.40;;;13.30;1.00;;;;;;4952824;28;20184;-50
2022/11/09 02:40:27;;;;;;;4.33;3.03;;;13.30;1.00;;;;;;4952355;28;20185;-50
2022/11/09 02:42:53;;;;;;;4.13;2.50;;;13.20;1.00;;;;;;4952679;28;20217;-50
2022/11/09 02:45:19;;;;;;;3.47;2.50;;;13.20;1.00;;;;;;4953050;28;20402;-51
2022/11/09 02:47:44;;;;;;;3.53;2.30;;;13.30;1.00;;;;;;4950923;28;20975;-56
2022/11/09 02:50:10;;;;;;;3.83;2.97;;;13.40;1.00;;;;;;4953360;28;20182;-50
2022/11/09 02:52:36;;;;;;;3.07;2.80;;;13.30;1.00;;;;;;4952186;28;20229;-50
2022/11/09 02:55:01;;;;;;;5.67;2.50;;;13.30;1.00;;;;;;4953262;28;20189;-51
2022/11/09 02:57:27;;;;;;;4.17;3.30;;;13.30;1.00;;;;;;4950594;28;20205;-50
2022/11/09 02:59:52;;;;;;;6.80;3.00;;;13.30;1.00;;;;;;4952447;28;20228;-51
2022/11/09 03:02:18;;;;;;;6.93;3.07;;;13.20;1.00;;;;;;4952401;28;20250;-50
2022/11/09 03:04:43;;;;;;;5.80;2.80;;;13.20;1.00;;;;;;4953394;28;20292;-50
2022/11/09 03:07:09;;;;;;;4.27;2.67;;;13.20;1.00;;;;;;4952622;28;20178;-51
2022/11/09 03:09:35;;;;;;;5.63;3.20;;;13.30;1.00;;;;;;4952194;28;20197;-51
2022/11/09 03:12:27;;;;;;;3.37;2.83;;;13.30;1.00;;;;;;4951289;28;20272;-50
2022/11/09 03:14:46;;;;;;;5.37;2.60;;;13.30;1.00;;;;;;4952773;28;20252;-51
2022/11/09 03:17:12;;;;;;;5.97;2.93;;;13.20;1.00;;;;;;4952487;28;20445;-50
2022/11/09 03:19:38;;;;;;;4.93;2.90;;;13.30;1.00;;;;;;4950843;29;20218;-50
2022/11/09 03:22:04;;;;;;;4.67;2.97;;;13.50;1.00;;;;;;4953061;28;20503;-51
2022/11/09 03:24:29;;;;;;;2.93;2.43;;;13.50;1.00;;;;;;4952847;28;20593;-51
2022/11/09 03:26:55;;;;;;;4.20;2.60;;;13.60;1.00;;;;;;4952449;28;20213;-50
2022/11/09 03:29:20;;;;;;;4.40;2.50;;;13.60;1.00;;;;;;4952745;28;20534;-51
2022/11/09 03:31:46;;;;;;;2.97;2.60;;;13.60;1.00;;;;;;4952062;28;20247;-50
2022/11/09 03:34:11;;;;;;;3.70;2.47;;;13.70;1.00;;;;;;4952678;28;20240;-51
2022/11/09 03:36:37;;;;;;;6.30;2.80;;;13.70;1.00;;;;;;4952196;28;20194;-50
2022/11/09 03:39:02;;;;;;;6.47;2.80;;;13.80;1.00;;;;;;4952808;28;20357;-50
2022/11/09 03:41:28;;;;;;;5.37;2.90;;;13.80;1.00;;;;;;4951429;28;20217;-50
2022/11/09 03:43:54;;;;;;;5.00;2.50;;;13.80;1.00;;;;;;4951483;28;20190;-50
2022/11/09 03:46:19;;;;;;;5.13;2.60;;;14.00;1.00;;;;;;4952193;28;20190;-50
2022/11/09 03:48:45;;;;;;;4.50;2.43;;;14.00;1.00;;;;;;4952404;28;20254;-50
2022/11/09 03:51:10;;;;;;;4.90;2.20;;;14.00;1.00;;;;;;4950823;28;20190;-50
2022/11/09 03:53:36;;;;;;;5.20;2.37;;;14.00;1.00;;;;;;4953476;28;20284;-50
2022/11/09 03:56:01;;;;;;;4.13;2.40;;;14.10;1.00;;;;;;4955795;28;20178;-50
2022/11/09 03:58:27;;;;;;;3.53;2.30;;;14.10;1.00;;;;;;4955955;28;20240;-51
2022/11/09 04:00:52;;;;;;;7.33;2.73;;;14.10;1.00;;;;;;4955651;28;20245;-50
2022/11/09 04:03:18;;;;;;;4.80;2.87;;;14.00;1.00;;;;;;4955895;28;20228;-50
2022/11/09 04:05:44;;;;;;;3.17;2.60;;;14.10;1.00;;;;;;4955613;28;20640;-50
2022/11/09 04:08:09;;;;;;;5.87;2.43;;;14.10;1.00;;;;;;4953677;28;20202;-51
2022/11/09 04:10:35;;;;;;;2.60;1.97;;;14.10;1.00;;;;;;4955721;28;20247;-51
2022/11/09 04:13:00;;;;;;;3.93;2.10;;;14.00;1.00;;;;;;4954862;28;20184;-51
2022/11/09 04:15:26;;;;;;;8.27;2.53;;;14.10;1.00;;;;;;4951005;28;20238;-50
2022/11/09 04:17:59;;;;;;;3.13;1.97;;;14.10;1.00;;;;;;4955397;28;20252;-51
2022/11/09 04:20:26;;;;;;;10.20;2.23;;;14.10;1.00;;;;;;4955924;28;20175;-50
2022/11/09 04:23:01;;;;;;;3.90;2.03;;;14.10;1.00;;;;;;4955195;28;20472;-50
2022/11/09 04:25:30;;;;;;;4.73;2.13;;;14.20;1.00;;;;;;4955402;28;20436;-51
2022/11/09 04:27:57;;;;;;;2.60;2.30;;;14.20;1.00;;;;;;4954660;28;20452;-50
2022/11/09 04:30:23;;;;;;;6.17;2.80;;;14.10;1.00;;;;;;4955404;28;20421;-51
2022/11/09 04:32:49;;;;;;;9.50;2.37;;;14.10;1.00;;;;;;4955356;28;20423;-50
2022/11/09 04:35:15;;;;;;;4.10;2.30;;;14.10;1.00;;;;;;4955424;28;20425;-50
2022/11/09 04:37:40;;;;;;;7.03;2.67;;;14.10;1.00;;;;;;4955152;28;20628;-51
2022/11/09 04:40:07;;;;;;;3.13;2.47;;;14.10;1.00;;;;;;4955197;28;20189;-50
2022/11/09 04:42:32;;;;;;;7.00;3.03;;;14.10;1.00;;;;;;4954705;28;20221;-51
2022/11/09 04:44:58;;;;;;;4.63;2.73;;;14.00;1.00;;;;;;4949873;28;20786;-50
2022/11/09 04:47:23;;;;;;;5.80;2.30;;;14.00;1.00;;;;;;4954944;28;20602;-50
2022/11/09 04:49:49;;;;;;;7.10;3.20;;;13.90;1.00;;;;;;4954936;28;20560;-51
2022/11/09 04:52:14;;;;;;;3.10;2.00;;;14.00;1.00;;;;;;4953902;28;20533;-50
2022/11/09 04:54:40;;;;;;;6.10;2.60;;;14.10;1.00;;;;;;4954884;28;20272;-50
2022/11/09 04:57:05;;;;;;;9.50;2.63;;;14.10;1.00;;;;;;4955314;28;20197;-51
2022/11/09 04:59:31;;;;;;;3.30;2.30;;;14.10;1.00;;;;;;4953797;28;20296;-50
2022/11/09 05:01:56;;;;;;;3.43;2.43;;;14.10;1.00;;;;;;4935450;29;20230;-50
2022/11/09 05:04:22;;;;;;;7.50;2.80;;;14.10;1.00;;;;;;4934158;29;20187;-52
2022/11/09 05:06:47;;;;;;;4.80;2.10;;;14.10;1.00;;;;;;4953293;29;20189;-51
2022/11/09 05:09:13;;;;;;;5.50;2.50;;;14.10;1.00;;;;;;4954008;28;20667;-50
2022/11/09 05:11:39;;;;;;;5.83;3.00;;;14.10;1.00;;;;;;4953792;28;20723;-50
2022/11/09 05:14:04;;;;;;;4.87;2.73;;;14.10;1.00;;;;;;4952895;29;20763;-50
2022/11/09 05:16:30;;;;;;;3.33;2.40;;;14.20;1.00;;;;;;4954435;28;20186;-50
2022/11/09 05:18:56;;;;;;;3.90;2.43;;;14.10;1.00;;;;;;4953460;28;20201;-51
2022/11/09 05:21:22;;;;;;;3.33;2.50;;;14.20;1.00;;;;;;4954371;28;20213;-50
2022/11/09 05:23:59;;;;;;;7.77;2.90;;;14.20;1.00;;;;;;4954178;28;20182;-50
2022/11/09 05:26:33;;;;;;;7.47;2.63;;;14.20;1.00;;;;;;4954323;28;20512;-50
2022/11/09 05:29:01;;;;;;;4.80;2.17;;;14.20;1.00;;;;;;4954042;28;20493;-50
2022/11/09 05:31:27;;;;;;;3.13;2.20;;;14.20;1.00;;;;;;4953100;29;20435;-51
2022/11/09 05:33:53;;;;;;;6.63;2.77;;;14.20;1.00;;;;;;4951851;28;20437;-50
2022/11/09 05:36:19;;;;;;;5.83;2.70;;;14.20;1.00;;;;;;4954153;28;20417;-51
2022/11/09 05:38:46;;;;;;;7.03;3.13;;;14.30;1.00;;;;;;4953955;28;20177;-50
2022/11/09 05:41:11;;;;;;;2.63;2.43;;;14.30;1.00;;;;;;4954049;28;20449;-51
2022/11/09 05:43:37;;;;;;;4.67;2.93;;;14.30;1.00;;;;;;4952887;28;21277;-51
2022/11/09 05:46:03;;;;;;;5.17;3.03;;;14.20;1.00;;;;;;4953608;28;20186;-51
2022/11/09 05:48:28;;;;;;;10.93;2.53;;;14.10;1.00;;;;;;4953191;28;20189;-51
2022/11/09 05:50:54;;;;;;;3.03;2.37;;;14.00;1.00;;;;;;4952281;28;20225;-50
2022/11/09 05:53:19;;;;;;;4.30;2.60;;;14.00;1.00;;;;;;4953826;28;20186;-51
2022/11/09 05:55:45;;;;;;;5.00;2.57;;;14.00;1.00;;;;;;4952848;28;20195;-50
2022/11/09 05:58:12;;;;;;;6.70;2.27;;;14.10;1.00;;;;;;4953598;28;20233;-51
2022/11/09 06:00:38;;;;;;;4.53;2.67;;;14.10;1.00;;;;;;4967942;28;20485;-50
2022/11/09 06:03:05;;;;;;;4.83;2.73;;;14.10;1.00;;;;;;4952590;28;20198;-50
2022/11/09 06:05:33;;;;;;;2.70;2.00;;;14.10;1.00;;;;;;4948636;28;20198;-50
2022/11/09 06:08:03;;;;;;;4.63;2.70;;;14.10;1.00;;;;;;4953154;28;20791;-50
2022/11/09 06:10:29;;;;;;;5.70;2.73;;;14.20;1.00;;;;;;4953560;28;20896;-51
2022/11/09 06:12:54;;;;;;;6.00;2.90;;;14.10;1.00;;;;;;4953235;28;20496;-51
2022/11/09 06:15:20;;;;;;;6.43;2.67;;;14.10;1.00;;;;;;4952066;28;20659;-50
2022/11/09 06:17:54;;;;;;;3.97;2.60;;;14.00;1.00;;;;;;4953294;28;20200;-51
2022/11/09 06:20:20;;;;;;;2.93;2.10;;;14.00;1.00;;;;;;4953410;28;20181;-51
2022/11/09 06:22:56;;;;;;;4.20;2.40;;;14.00;1.00;;;;;;4952325;28;20993;-51
2022/11/09 06:25:22;;;;;;;3.17;2.77;;;14.00;1.00;;;;;;4952538;29;20464;-51
2022/11/09 06:27:49;;;;;;;6.37;2.10;;;14.00;1.00;;;;;;4953305;28;20872;-50
2022/11/09 06:30:15;;;;;;;8.60;2.20;;;14.10;1.00;;;;;;4951944;29;20524;-52
2022/11/09 06:32:41;;;;;;;6.63;2.30;;;14.20;1.00;;;;;;4952910;28;20515;-50
2022/11/09 06:35:07;;;;;;;4.90;3.10;;;14.20;1.00;;;;;;4951652;28;20910;-50
2022/11/09 06:37:32;;;;;;;7.27;2.50;;;14.20;1.00;;;;;;4952472;28;20626;-50
2022/11/09 06:39:58;;;;;;;4.23;2.27;;;14.20;1.00;;;;;;4952759;28;20441;-51
2022/11/09 06:42:23;;;;;;;2.97;2.30;;;14.20;1.00;;;;;;4952097;28;20312;-50
2022/11/09 06:44:49;;;;;;;3.60;1.97;;;14.20;1.00;;;;;;4951913;28;21005;-50
2022/11/09 06:47:15;;;;;;;5.67;2.40;;;14.20;1.00;;;;;;4952972;28;20193;-51
2022/11/09 06:49:40;;;;;;;3.47;2.23;;;14.20;1.00;;;;;;4952693;28;20184;-51
2022/11/09 06:52:06;;;;;;;7.33;2.47;;;14.20;1.00;;;;;;4953115;28;20187;-50
2022/11/09 06:54:33;;;;;;;4.27;2.00;;;14.20;1.00;;;;;;4951883;28;20632;-51
2022/11/09 06:56:59;;;;;;;2.37;1.77;;;14.20;1.00;;;;;;4952589;28;20683;-51
2022/11/09 06:59:24;;;;;;;3.30;2.40;;;14.20;1.00;;;;;;4952873;28;20421;-51
2022/11/09 07:01:50;;;;;;;2.63;2.13;;;14.10;1.00;;;;;;4951276;28;20481;-50
2022/11/09 07:04:16;;;;;;;5.60;2.20;;;14.10;1.00;;;;;;4952823;28;20252;-51
2022/11/09 07:06:42;;;;;;;2.23;1.70;;;14.00;1.00;;;;;;4950389;28;20193;-51
2022/11/09 07:09:09;;;;;;;3.97;2.40;;;14.00;1.00;;;;;;4952395;28;20193;-51
2022/11/09 07:11:34;;;;;;;3.27;1.97;;;14.00;1.00;;;;;;4948842;28;20287;-51
2022/11/09 07:14:01;;;;;;;3.50;2.40;;;13.90;1.00;;;;;;4952745;28;20453;-51
2022/11/09 07:16:30;;;;;;;4.20;2.40;;;13.80;1.00;;;;;;4952618;28;20192;-51
2022/11/09 07:18:56;;;;;;;4.40;2.23;;;13.80;1.00;;;;;;4951597;28;20800;-50
2022/11/09 07:21:22;;;;;;;8.10;2.50;;;13.80;1.00;;;;;;4951895;28;20472;-51
2022/11/09 07:23:48;;;;;;;3.57;1.90;;;13.80;1.00;;;;;;4952699;28;20417;-51
2022/11/09 07:26:14;;;;;;;4.60;2.10;;;13.80;1.00;;;;;;4952372;28;20209;-51
2022/11/09 07:28:40;;;;;;;4.00;2.40;;;13.80;1.00;;;;;;4953984;28;20456;-50
2022/11/09 07:31:06;;;;;;;3.57;2.13;;;13.80;1.00;;;;;;4955692;28;20452;-51
2022/11/09 07:33:32;;;;;;;3.33;2.00;;;13.80;1.00;;;;;;4956188;28;20204;-50
2022/11/09 07:35:59;;;;;;;4.43;1.83;;;13.80;1.00;;;;;;4955816;28;20200;-51
2022/11/09 07:38:25;;;;;;;3.13;2.00;;;13.80;1.00;;;;;;4954855;29;20850;-51
2022/11/09 07:40:51;;;;;;;4.37;2.43;;;13.90;1.00;;;;;;4955373;28;20445;-51
2022/11/09 07:43:17;;;;;;;7.53;2.10;;;13.90;1.00;;;;;;4954102;28;20842;-50
2022/11/09 07:45:43;;;;;;;4.67;2.23;;;13.90;1.00;;;;;;4955471;28;20674;-51
2022/11/09 07:48:10;;;;;;;7.27;2.13;;;13.90;1.00;;;;;;4953398;28;20445;-52
2022/11/09 07:50:37;;;;;;;6.07;2.30;;;13.80;1.00;;;;;;4955096;28;20190;-50
2022/11/09 07:53:05;;;;;;;3.93;2.20;;;13.80;1.00;;;;;;4955009;28;20447;-51
2022/11/09 07:55:32;;;;;;;5.37;2.40;;;13.90;1.00;;;;;;4950204;28;20858;-51
2022/11/09 07:58:00;;;;;;;3.90;1.77;;;13.90;1.00;;;;;;4964749;28;20473;-51
2022/11/09 08:00:27;;;;;;;6.83;2.33;;;13.90;1.00;;;;;;4954404;28;20539;-52
2022/11/09 08:02:53;;;;;;;3.40;1.90;;;14.00;1.00;;;;;;4954853;28;20501;-51
2022/11/09 08:05:19;;;;;;;4.60;1.97;;;14.00;1.00;;;;;;4954460;28;20457;-51
2022/11/09 08:07:45;;;;;;;4.80;2.20;;;14.00;1.00;;;;;;4945616;28;20260;-51
2022/11/09 08:10:11;;;;;;;3.93;2.00;;;14.00;1.00;;;;;;4954521;28;20449;-51
2022/11/09 08:12:37;;;;;;;6.53;1.90;;;14.00;1.00;;;;;;4954956;29;20225;-51
2022/11/09 08:15:03;;;;;;;4.40;1.90;;;14.10;1.00;;;;;;4955654;28;20436;-51
2022/11/09 08:17:30;;;;;;;4.10;2.43;;;14.00;1.00;;;;;;4954961;28;20182;-52
2022/11/09 08:19:55;;;;;;;6.43;2.33;;;14.00;1.00;;;;;;4954885;28;20451;-53
2022/11/09 08:22:21;;;;;;;4.00;1.70;;;14.10;1.00;;;;;;4954638;28;20469;-51
2022/11/09 08:24:47;;;;;;;3.07;1.90;;;14.20;1.00;;;;;;4955363;29;20251;-51
2022/11/09 08:27:12;;;;;;;9.73;1.80;;;14.20;1.00;;;;;;4954215;28;20643;-51
2022/11/09 08:29:38;;;;;;;4.20;2.40;;;14.30;1.00;;;;;;4955485;28;20170;-51
2022/11/09 08:32:03;;;;;;;4.90;1.93;;;14.30;1.00;;;;;;4955361;28;20182;-51
2022/11/09 08:34:29;;;;;;;5.17;2.40;;;14.40;1.00;;;;;;4955363;28;20186;-52
2022/11/09 08:36:59;;;;;;;5.70;2.53;;;14.40;1.00;;;;;;4954163;28;20198;-51
2022/11/09 08:39:24;;;;;;;3.10;1.73;;;14.30;1.00;;;;;;4953877;28;20245;-51
2022/11/09 08:41:50;;;;;;;3.77;2.30;;;14.30;1.00;;;;;;4954532;28;20481;-51
2022/11/09 08:44:15;;;;;;;5.00;2.20;;;14.30;1.00;;;;;;4955182;28;20193;-51
2022/11/09 08:46:41;;;;;;;8.50;2.33;;;14.30;1.00;;;;;;4953595;28;20195;-53
2022/11/09 08:49:07;;;;;;;8.23;2.37;;;14.30;1.00;;;;;;4954783;28;20186;-51
2022/11/09 08:51:32;;;;;;;6.20;2.37;;;14.30;1.00;;;;;;4953647;28;20718;-52
2022/11/09 08:53:58;;;;;;;6.13;2.10;;;14.30;1.00;;;;;;4954335;28;20202;-51
2022/11/09 08:56:24;;;;;;;9.10;2.10;;;14.30;1.00;;;;;;4953755;28;20201;-51
2022/11/09 08:58:49;;;;;;;7.73;2.70;;;14.30;1.00;;;;;;4954777;28;20622;-51
2022/11/09 09:01:16;;;;;;;4.80;2.20;;;14.40;1.00;;;;;;4954053;28;20692;-51
2022/11/09 09:03:41;;;;;;;6.97;2.10;;;14.40;1.00;;;;;;4937480;28;20334;-51
2022/11/09 09:06:07;;;;;;;6.73;2.70;;;14.50;1.00;;;;;;4948325;29;20528;-51
2022/11/09 09:08:34;;;;;;;7.03;1.90;;;14.60;1.00;;;;;;4954371;28;20190;-51
2022/11/09 09:11:05;;;;;;;5.40;2.50;;;14.60;1.00;;;;;;4954655;28;20438;-52
2022/11/09 09:13:31;;;;;;;6.27;1.93;;;14.70;1.00;;;;;;4954429;28;20418;-50
2022/11/09 09:16:07;;;;;;;6.80;2.00;;;14.80;1.00;;;;;;4954669;28;20424;-50
2022/11/09 09:18:32;;;;;;;4.87;1.90;;;14.80;1.00;;;;;;4954966;28;20452;-51
2022/11/09 09:20:58;;;;;;;4.77;1.90;;;14.90;1.00;;;;;;4954346;28;20417;-51
2022/11/09 09:23:23;;;;;;;6.87;2.00;;;14.90;1.00;;;;;;4954384;28;20217;-51
2022/11/09 09:25:49;;;;;;;3.07;1.93;;;15.00;1.00;;;;;;4953561;28;20197;-52
2022/11/09 09:28:14;;;;;;;5.60;1.90;;;15.10;1.00;;;;;;4952135;28;20648;-51
2022/11/09 09:30:40;;;;;;;5.07;1.90;;;15.20;1.00;;;;;;4953656;28;20567;-51
2022/11/09 09:33:05;;;;;;;9.13;2.07;;;15.30;1.00;;;;;;4953570;28;20535;-50
2022/11/09 09:35:31;;;;;;;13.03;2.47;;;15.50;1.00;;;;;;4952256;28;20205;-53
2022/11/09 09:37:57;;;;;;;7.10;2.60;;;15.60;1.00;;;;;;4967885;28;20213;-50
2022/11/09 09:40:34;;;;;;;8.83;1.90;;;15.50;1.00;;;;;;4953529;28;20202;-51
2022/11/09 09:42:59;;;;;;;10.57;2.60;;;15.50;1.00;;;;;;4953518;28;20225;-51
2022/11/09 09:45:29;;;;;;;11.97;3.03;;;15.40;1.00;;;;;;4950522;28;20431;-51
2022/11/09 09:48:02;;;;;;;8.47;2.30;;;15.40;1.00;;;;;;4938850;29;20664;-52
2022/11/09 09:50:43;;;;;;;6.77;2.07;;;15.40;1.00;;;;;;4951926;28;20413;-50
2022/11/09 09:53:35;;;;;;;5.30;2.50;;;15.50;1.00;;;;;;4942335;29;20540;-52
2022/11/09 09:56:15;;;;;;;11.40;2.43;;;15.70;1.00;;;;;;4952905;28;20463;-50
2022/11/09 09:58:48;;;;;;;8.20;2.30;;;15.70;1.00;;;;;;4951722;28;20475;-52
2022/11/09 10:01:19;;;;;;;6.63;2.10;;;15.80;1.00;;;;;;4952284;29;20519;-52
2022/11/09 10:03:46;;;;;;;8.73;3.10;;;16.10;1.00;;;;;;4950510;28;20504;-52
2022/11/09 10:06:33;;;;;;;6.03;2.00;;;16.00;1.00;;;;;;4951118;29;20456;-51
2022/11/09 10:09:02;;;;;;;9.07;2.30;;;16.00;1.00;;;;;;4953715;28;20412;-51
2022/11/09 10:11:58;;;;;;;12.60;2.63;;;16.00;1.00;;;;;;4953443;28;20449;-52
2022/11/09 10:14:39;;;;;;;5.20;2.30;;;16.30;1.00;;;;;;4952295;28;20452;-52
2022/11/09 10:17:18;;;;;;;6.30;1.83;;;16.60;1.00;;;;;;4953245;28;20504;-52
2022/11/09 10:19:58;;;;;;;6.73;1.70;;;17.00;1.00;;;;;;4953434;28;20454;-52
2022/11/09 10:22:27;;;;;;;7.17;1.97;;;17.20;1.00;;;;;;4953339;28;20551;-52
2022/11/09 10:25:02;;;;;;;6.97;2.77;;;17.20;1.00;;;;;;4953473;28;20409;-51
2022/11/09 10:27:34;;;;;;;7.83;2.13;;;17.20;1.00;;;;;;4951945;28;20429;-51
2022/11/09 10:30:01;;;;;;;6.87;2.10;;;17.10;1.00;;;;;;4933941;28;20514;-51
2022/11/09 10:32:31;;;;;;;6.33;2.13;;;17.30;1.00;;;;;;4939777;29;20433;-51
2022/11/09 10:35:11;;;;;;;5.90;2.20;;;18.10;1.00;;;;;;4952838;29;20472;-51
2022/11/09 10:37:43;;;;;;;6.03;2.17;;;18.60;1.00;;;;;;4953437;29;20416;-52
2022/11/09 10:40:17;;;;;;;7.27;2.67;;;19.50;1.00;;;;;;4953106;29;20453;-51
2022/11/09 10:43:07;;;;;;;7.13;2.20;;;20.50;1.00;;;;;;4951747;29;20471;-53
2022/11/09 10:45:36;;;;;;;7.37;1.87;;;20.90;1.00;;;;;;4952788;28;20437;-51
2022/11/09 10:48:04;;;;;;;6.73;1.80;;;20.20;1.00;;;;;;4952385;28;20911;-51
2022/11/09 10:50:32;;;;;;;5.00;2.10;;;19.50;1.00;;;;;;4952481;28;20437;-51
2022/11/09 10:53:22;;;;;;;13.63;2.50;;;18.30;1.00;;;;;;4947771;29;20851;-52
2022/11/09 10:56:04;;;;;;;9.47;2.50;;;17.60;1.00;;;;;;4952971;28;20868;-52
2022/11/09 10:58:37;;;;;;;5.10;1.87;;;17.50;1.00;;;;;;4952876;28;20472;-51
2022/11/09 11:01:13;;;;;;;8.93;2.20;;;17.60;1.00;;;;;;4951950;28;20485;-52
2022/11/09 11:03:39;;;;;;;10.40;2.30;;;18.30;1.00;;;;;;4952758;28;20440;-51
2022/11/09 11:06:10;;;;;;;6.33;2.30;;;18.30;1.00;;;;;;4952877;28;20418;-51
2022/11/09 11:08:39;;;;;;;4.20;2.23;;;18.10;1.00;;;;;;4951338;29;20437;-49
2022/11/09 11:11:25;;;;;;;8.10;2.00;;;17.60;1.00;;;;;;4953127;28;20409;-51
2022/11/09 11:14:05;;;;;;;8.77;2.43;;;17.20;1.00;;;;;;4952405;28;20496;-51
2022/11/09 11:16:35;;;;;;;7.30;2.50;;;16.90;1.00;;;;;;4953092;28;20433;-51
2022/11/09 11:19:02;;;;;;;5.87;2.23;;;16.70;1.00;;;;;;4952123;28;20464;-55
2022/11/09 11:21:28;;;;;;;9.53;2.30;;;16.50;1.00;;;;;;4952632;28;21002;-52
2022/11/09 11:24:12;;;;;;;4.40;2.10;;;16.60;1.00;;;;;;4952168;28;20480;-51
2022/11/09 11:26:40;;;;;;;6.17;2.40;;;17.70;1.00;;;;;;4933833;29;20403;-51
2022/11/09 11:29:27;;;;;;;10.87;2.33;;;18.70;1.00;;;;;;4941881;29;20442;-52
2022/11/09 11:31:53;;;;;;;8.37;1.97;;;19.30;1.00;;;;;;4953141;28;20524;-52
2022/11/09 11:34:19;;;;;;;8.50;2.40;;;19.80;1.00;;;;;;4952875;28;21290;-52
2022/11/09 11:37:09;;;;;;;7.67;2.20;;;20.00;1.00;;;;;;4952355;28;20190;-51
2022/11/09 11:39:47;;;;;;;6.80;1.70;;;20.10;1.00;;;;;;4950967;29;21101;-55
2022/11/09 11:42:37;;;;;;;6.37;2.20;;;20.00;1.00;;;;;;4952549;28;20966;-52
2022/11/09 11:45:03;;;;;;;5.73;2.30;;;19.60;1.00;;;;;;4948798;28;20935;-51
2022/11/09 11:48:10;;;;;;;7.27;2.33;;;19.30;1.00;;;;;;4951951;28;20507;-51
2022/11/09 11:50:39;;;;;;;12.30;2.63;;;19.20;1.00;;;;;;4952605;28;20483;-51
2022/11/09 11:53:30;;;;;;;6.90;2.13;;;19.30;1.00;;;;;;4952460;28;20475;-51
2022/11/09 11:56:14;;;;;;;5.90;1.80;;;19.30;1.00;;;;;;4952972;28;20437;-50
2022/11/09 11:58:43;;;;;;;7.80;1.73;;;18.90;1.00;;;;;;4951469;28;20448;-52
2022/11/09 12:01:18;;;;;;;8.40;1.73;;;18.00;1.00;;;;;;4963606;28;20484;-51
2022/11/09 12:04:00;;;;;;;12.13;2.27;;;17.40;1.00;;;;;;4949907;28;20464;-51
2022/11/09 12:06:52;;;;;;;8.27;1.60;;;17.40;1.00;;;;;;4952478;28;20424;-51
2022/11/09 12:09:44;;;;;;;5.17;1.97;;;17.00;1.00;;;;;;4950898;28;20445;-51
2022/11/09 12:12:13;;;;;;;5.27;2.07;;;16.60;1.00;;;;;;4951230;28;20485;-51
2022/11/09 12:14:47;;;;;;;7.13;1.90;;;16.80;1.00;;;;;;4969269;28;20432;-51
2022/11/09 12:17:32;;;;;;;4.03;1.90;;;17.90;1.00;;;;;;4975056;28;20424;-51
2022/11/09 12:20:45;;;;;;;7.20;1.80;;;18.90;1.00;;;;;;4950669;28;20474;-52
2022/11/09 12:23:57;;;;;;;8.87;2.17;;;19.60;1.00;;;;;;4953316;28;20476;-51
2022/11/09 12:26:35;;;;;;;4.23;1.70;;;20.30;1.00;;;;;;4953342;29;20460;-48
2022/11/09 12:29:18;;;;;;;7.30;2.33;;;20.40;1.00;;;;;;4954389;28;20443;-51
2022/11/09 12:31:43;;;;;;;5.20;2.50;;;19.80;1.00;;;;;;4953891;28;20568;-50
2022/11/09 12:34:46;;;;;;;6.17;1.90;;;19.90;1.00;;;;;;4952921;28;20552;-51
2022/11/09 12:37:17;;;;;;;9.10;2.30;;;19.90;1.00;;;;;;4941680;28;20189;-51
2022/11/09 12:39:45;;;;;;;7.10;2.07;;;20.00;1.00;;;;;;4949483;28;20815;-51
2022/11/09 12:42:35;;;;;;;6.67;2.00;;;19.80;1.00;;;;;;4954349;28;20475;-51
2022/11/09 12:45:17;;;;;;;8.23;2.07;;;19.90;1.00;;;;;;4951935;28;20862;-51
2022/11/09 12:47:44;;;;;;;11.33;2.17;;;19.60;1.00;;;;;;4945287;28;20541;-51
2022/11/09 12:50:16;;;;;;;12.53;3.57;;;18.90;1.00;;;;;;4948719;28;20512;-51
2022/11/09 12:52:44;;;;;;;6.37;1.97;;;18.70;1.00;;;;;;4950764;28;20536;-53
2022/11/09 12:55:25;;;;;;;6.80;2.60;;;19.80;1.00;;;;;;4954639;28;20453;-51
2022/11/09 12:57:52;;;;;;;6.87;2.10;;;21.00;1.00;;;;;;4964737;28;20452;-51
2022/11/09 13:00:33;;;;;;;6.87;2.00;;;21.20;1.00;;;;;;4949109;28;20445;-51
2022/11/09 13:03:02;;;;;;;7.30;2.13;;;21.20;1.00;;;;;;4951329;28;20492;-51
2022/11/09 13:05:30;;;;;;;10.87;2.60;;;21.00;1.00;;;;;;4949677;28;20441;-51
2022/11/09 13:07:59;;;;;;;7.97;2.27;;;20.70;1.00;;;;;;4954947;28;20401;-51
2022/11/09 13:10:33;;;;;;;6.27;2.13;;;20.60;1.00;;;;;;4953935;28;20920;-51